map of ABT home
Great Circle Mapper logo
ABT - Airport
Location
City:  Al Baha, Saudi Arabia
ICAO / IATA:OEBA / ABT

Details
Type:Airport (Aerodrome, Airfield)
Latitude:2017'46"N (20.296139)
Longitude:4138'03"E (41.634277)
Datum:WGS 1984
Elevation:5486 ft (1672 m)
Runways:1
Longest:10991 × 148 ft (3350 × 45 m), paved

Time
Time Zone:UTC+3
Local Time:

Weather
METAR:OEBA 311900Z 26008KT CAVOK 27/17 Q1017 NOSIG
TAF:OEBA 311030Z 3112/0118 28010G20KT 9999 SCT030
TEMPO 3012/3018 7000 TSRA FEW025CB BKN030
BECMG 3119/3121 34010KT

Related Locations
Nearby:
Farthest:ZTA: 12435 mi / 20012 km
Tureia, PF

Find:

   beyond  
but within

Other Information
Maps:
NOTAMs:
Links:
Sources:

  
flag of Saudi Arabia   

Sectional Chart

Flight Planning
at skyvector.com

Satellite Image

Google Maps Satellite View

 

Copyright © 2004-2014 Karl L. Swartz. All rights reserved.
The Great Circle Mapper name and logo are trademarks of the Great Circle Mapper.
All other trademarks mentioned herein belong to their respective owners.
Please see credits for attibutions and further copyright information.

  Follow gcmap on Facebook Follow gcmap on Twitter

hCard Microformat

Geo Microformat